createdAt,value
2017-04-10T00:01:08.390Z,0
2017-04-10T00:03:32.144Z,0
2017-04-10T00:05:56.926Z,0
2017-04-10T00:08:20.718Z,0
2017-04-10T00:10:44.497Z,0
2017-04-10T00:13:08.272Z,0
2017-04-10T00:15:32.025Z,0
2017-04-10T00:17:55.822Z,0
2017-04-10T00:20:19.595Z,0
2017-04-10T00:22:43.347Z,0
2017-04-10T00:25:07.116Z,0
2017-04-10T00:27:30.923Z,0
2017-04-10T00:29:54.694Z,0
2017-04-10T00:32:18.437Z,0
2017-04-10T00:34:42.091Z,0
2017-04-10T00:36:57.354Z,0
2017-04-10T00:39:21.071Z,0
2017-04-10T00:41:36.383Z,0
2017-04-10T00:44:00.104Z,0
2017-04-10T00:46:23.767Z,0
2017-04-10T00:48:39.044Z,0
2017-04-10T00:51:02.720Z,0
2017-04-10T00:53:26.499Z,0
2017-04-10T00:55:28.240Z,0
2017-04-10T00:57:51.915Z,0
2017-04-10T01:00:15.597Z,0
2017-04-10T01:02:39.369Z,0
2017-04-10T01:05:03.142Z,0
2017-04-10T01:07:26.818Z,0
2017-04-10T01:09:50.486Z,0
2017-04-10T01:12:14.155Z,0
2017-04-10T01:14:29.429Z,0
2017-04-10T01:16:53.089Z,0
2017-04-10T01:19:16.786Z,0
2017-04-10T01:21:40.461Z,0
2017-04-10T01:24:04.220Z,0
2017-04-10T01:26:19.462Z,0
2017-04-10T01:28:43.177Z,0
2017-04-10T01:31:06.848Z,0
2017-04-10T01:33:30.541Z,0
2017-04-10T01:35:54.194Z,0
2017-04-10T01:38:17.856Z,0
2017-04-10T01:40:19.586Z,0
2017-04-10T01:42:21.281Z,0
2017-04-10T01:44:45.053Z,0
2017-04-10T01:48:53.435Z,0
2017-04-10T01:51:17.159Z,0
2017-04-10T01:53:32.439Z,0
2017-04-10T01:55:56.094Z,0
2017-04-10T01:57:57.890Z,0
2017-04-10T02:00:21.634Z,0
2017-04-10T02:02:45.195Z,0
2017-04-10T02:05:08.861Z,0
2017-04-10T02:07:32.540Z,0
2017-04-10T02:09:56.097Z,0
2017-04-10T02:12:19.679Z,0
2017-04-10T02:14:43.356Z,0
2017-04-10T02:17:07.028Z,0
2017-04-10T02:19:30.688Z,0
2017-04-10T02:21:33.507Z,0
2017-04-10T02:23:49.757Z,0
2017-04-10T02:26:13.442Z,0
2017-04-10T02:28:36.996Z,0
2017-04-10T02:31:00.588Z,0
2017-04-10T02:33:25.188Z,0
2017-04-10T02:35:40.440Z,0
2017-04-10T02:37:55.610Z,0
2017-04-10T02:40:10.784Z,0
2017-04-10T02:42:25.973Z,0
2017-04-10T02:44:49.547Z,0
2017-04-10T02:47:13.227Z,0
2017-04-10T02:49:36.897Z,0
2017-04-10T02:52:00.569Z,0
2017-04-10T02:54:24.247Z,0
2017-04-10T02:56:47.812Z,0
2017-04-10T02:59:11.359Z,0
2017-04-10T03:01:34.927Z,0
2017-04-10T03:03:58.520Z,0
2017-04-10T03:06:22.082Z,0
2017-04-10T03:08:45.672Z,0
2017-04-10T03:11:09.319Z,0
2017-04-10T03:13:32.918Z,0
2017-04-10T03:15:56.459Z,0
2017-04-10T03:18:20.040Z,0
2017-04-10T03:20:43.574Z,0
2017-04-10T03:23:07.173Z,0
2017-04-10T03:25:30.740Z,0
2017-04-10T03:27:54.321Z,0
2017-04-10T03:30:17.880Z,0
2017-04-10T03:32:28.104Z,0
2017-04-10T03:34:51.708Z,0
2017-04-10T03:36:53.398Z,0
2017-04-10T03:39:17.031Z,0
2017-04-10T03:41:40.590Z,0
2017-04-10T03:43:55.804Z,0
2017-04-10T03:46:20.367Z,0
2017-04-10T03:48:43.953Z,0
2017-04-10T03:51:07.508Z,0
2017-04-10T03:53:32.001Z,0
2017-04-10T03:55:55.557Z,0
2017-04-10T03:58:19.134Z,0
2017-04-10T04:00:34.293Z,0
2017-04-10T04:02:57.907Z,0
2017-04-10T04:05:22.457Z,0
2017-04-10T04:07:46.038Z,0
2017-04-10T04:10:10.663Z,0
2017-04-10T04:12:34.206Z,0
2017-04-10T04:14:35.486Z,0
2017-04-10T04:16:59.009Z,0
2017-04-10T04:19:22.575Z,0
2017-04-10T04:21:46.051Z,0
2017-04-10T04:24:09.510Z,0
2017-04-10T04:26:33.006Z,0
2017-04-10T04:28:56.537Z,0
2017-04-10T04:31:20.034Z,0
2017-04-10T04:33:43.607Z,0
2017-04-10T04:36:08.185Z,0
2017-04-10T04:38:31.659Z,0
2017-04-10T04:41:01.161Z,0
2017-04-10T04:43:18.879Z,0
2017-04-10T04:45:43.282Z,0
2017-04-10T04:48:13.806Z,0
2017-04-10T04:50:37.277Z,0
2017-04-10T04:52:47.474Z,0
2017-04-10T04:55:11.009Z,0
2017-04-10T04:57:34.623Z,0
2017-04-10T04:59:58.158Z,0
2017-04-10T05:02:21.723Z,0
2017-04-10T05:04:45.314Z,0
2017-04-10T05:07:08.791Z,0
2017-04-10T05:09:32.332Z,0
2017-04-10T05:11:55.796Z,0
2017-04-10T05:14:19.379Z,0
2017-04-10T05:16:42.964Z,0
2017-04-10T05:19:06.677Z,0
2017-04-10T05:21:30.352Z,0
2017-04-10T05:23:54.112Z,0
2017-04-10T05:26:18.013Z,0
2017-04-10T05:28:42.045Z,0
2017-04-10T05:30:57.565Z,0
2017-04-10T05:33:21.720Z,0
2017-04-10T05:35:23.560Z,0
2017-04-10T05:37:39.551Z,0
2017-04-10T05:40:03.872Z,0
2017-04-10T05:42:28.295Z,0
2017-04-10T05:44:44.368Z,0
2017-04-10T05:47:08.974Z,0
2017-04-10T05:49:33.706Z,0
2017-04-10T05:53:34.951Z,1006.69
2017-04-10T05:55:59.993Z,1006.68
2017-04-10T05:58:24.989Z,1006.68
2017-04-10T06:02:26.613Z,1006.69
2017-04-10T06:04:51.926Z,1006.71
2017-04-10T06:07:17.318Z,1006.68
2017-04-10T06:09:42.741Z,1006.67
2017-04-10T06:12:08.268Z,1006.73
2017-04-10T06:14:33.805Z,1006.81
2017-04-10T06:16:26.979Z,1006.82
2017-04-10T06:18:52.733Z,1006.83
2017-04-10T06:21:18.412Z,1006.84
2017-04-10T06:23:44.128Z,1006.77
2017-04-10T06:26:09.863Z,1006.86
2017-04-10T06:28:35.716Z,1006.88
2017-04-10T06:30:53.073Z,1006.87
2017-04-10T06:33:18.984Z,1006.89
2017-04-10T06:35:44.903Z,1006.83
2017-04-10T06:38:10.702Z,1006.85
2017-04-10T06:40:36.402Z,1006.91
2017-04-10T06:43:04.959Z,1006.89
2017-04-10T06:45:30.662Z,1006.88
2017-04-10T06:47:57.274Z,1006.86
2017-04-10T06:50:23.708Z,1006.77
2017-04-10T06:52:49.203Z,1006.77
2017-04-10T06:55:14.555Z,1006.74
2017-04-10T06:57:41.108Z,1006.74
2017-04-10T07:00:02.061Z,1006.67
2017-04-10T07:02:27.829Z,1006.73
2017-04-10T07:04:31.267Z,1006.81
2017-04-10T07:07:00.435Z,1006.78
2017-04-10T07:09:32.894Z,1006.89
2017-04-10T07:12:17.007Z,1006.96
2017-04-10T07:14:45.477Z,1006.98
2017-04-10T07:17:13.347Z,1007.06
2017-04-10T07:19:40.408Z,1007.08
2017-04-10T07:22:10.292Z,1007.11
2017-04-10T07:24:54.870Z,1007.14
2017-04-10T07:27:23.301Z,1007.16
2017-04-10T07:29:51.165Z,1007.2
2017-04-10T07:32:18.009Z,1007.22
2017-04-10T07:34:45.899Z,1007.24
2017-04-10T07:37:13.095Z,1007.25
2017-04-10T07:39:40.736Z,1007.27
2017-04-10T07:42:07.762Z,1007.15
2017-04-10T07:44:42.617Z,1007
2017-04-10T07:49:05.701Z,1006.9
2017-04-10T07:57:19.412Z,1006.75
2017-04-10T07:59:45.501Z,1006.8
2017-04-10T08:02:12.397Z,1006.73
2017-04-10T08:04:38.152Z,1006.72
2017-04-10T08:06:40.495Z,1006.74
2017-04-10T08:09:06.118Z,1006.8
2017-04-10T08:11:32.639Z,1006.77
2017-04-10T08:13:58.171Z,1006.81
2017-04-10T08:16:25.109Z,1006.81
2017-04-10T08:18:50.373Z,1006.76
2017-04-10T08:21:15.704Z,1006.73
2017-04-10T08:23:41.294Z,1006.73
2017-04-10T08:26:06.779Z,1006.79
2017-04-10T08:28:31.955Z,1006.75
2017-04-10T08:30:48.775Z,1006.76
2017-04-10T08:33:14.987Z,1006.74
2017-04-10T08:35:40.682Z,1006.72
2017-04-10T08:38:06.120Z,1006.79
2017-04-10T08:40:31.519Z,1006.77
2017-04-10T08:42:56.970Z,1006.75
2017-04-10T08:45:22.531Z,1006.7
2017-04-10T08:47:47.936Z,1006.65
2017-04-10T08:50:13.212Z,1006.64
2017-04-10T08:52:30.005Z,1006.57
2017-04-10T08:54:55.305Z,1006.59
2017-04-10T08:57:23.928Z,1006.59
2017-04-10T08:59:49.200Z,1006.56
2017-04-10T09:02:15.417Z,1006.51
2017-04-10T09:04:40.643Z,1006.47
2017-04-10T09:07:05.927Z,1006.48
2017-04-10T09:09:31.142Z,1006.49
2017-04-10T09:11:56.342Z,1006.5
2017-04-10T09:14:21.608Z,1006.45
2017-04-10T09:16:46.829Z,1006.46
2017-04-10T09:19:12.005Z,1006.46
2017-04-10T09:21:37.203Z,1006.51
2017-04-10T09:24:02.530Z,1006.48
2017-04-10T09:26:27.834Z,1006.45
2017-04-10T09:28:53.036Z,1006.43
2017-04-10T09:31:18.201Z,1006.41
2017-04-10T09:33:43.433Z,1006.4
2017-04-10T09:36:08.654Z,1006.43
2017-04-10T09:38:34.870Z,1006.41
2017-04-10T09:41:00.283Z,1006.32
2017-04-10T09:43:25.485Z,1006.29
2017-04-10T09:45:51.718Z,1006.24
2017-04-10T09:48:16.944Z,1006.2
2017-04-10T09:50:42.021Z,1006.19
2017-04-10T09:53:07.145Z,1006.14
2017-04-10T09:55:32.240Z,1006.12
2017-04-10T09:57:57.350Z,1006.07
2017-04-10T10:00:22.558Z,1006.06
2017-04-10T10:02:47.671Z,1006.02
2017-04-10T10:05:13.682Z,1006.07
2017-04-10T10:07:38.785Z,1006
2017-04-10T10:10:04.924Z,1005.95
2017-04-10T10:12:31.089Z,1006.01
2017-04-10T10:14:56.118Z,1005.99
2017-04-10T10:17:21.169Z,1005.96
2017-04-10T10:19:46.144Z,1005.89
2017-04-10T10:22:11.139Z,1005.81
2017-04-10T10:24:36.140Z,1005.82
2017-04-10T10:27:01.149Z,1005.79
2017-04-10T10:29:32.881Z,1005.77
2017-04-10T10:31:58.772Z,1005.72
2017-04-10T10:34:42.441Z,1005.73
2017-04-10T10:36:54.126Z,1005.78
2017-04-10T10:39:20.599Z,1005.67
2017-04-10T10:41:45.689Z,1005.63
2017-04-10T10:44:19.355Z,1005.72
2017-04-10T10:46:44.351Z,1005.59
2017-04-10T10:49:03.633Z,1005.54
2017-04-10T10:51:30.319Z,1005.52
2017-04-10T10:53:55.398Z,1005.49
2017-04-10T10:56:22.541Z,1005.42
2017-04-10T10:58:47.245Z,1005.41
2017-04-10T11:01:10.396Z,1005.4
2017-04-10T11:06:12.933Z,1005.32
2017-04-10T11:08:37.903Z,1005.31
2017-04-10T11:11:02.942Z,1005.33
2017-04-10T11:13:28.876Z,1005.21
2017-04-10T11:15:54.687Z,1005.2
2017-04-10T11:18:20.077Z,1005.17
2017-04-10T11:20:44.986Z,1005.13
2017-04-10T11:23:16.423Z,1005.09
2017-04-10T11:25:41.352Z,1005.12
2017-04-10T11:28:06.576Z,1004.94
2017-04-10T11:30:18.233Z,1005.03
2017-04-10T11:32:47.239Z,1005.02
2017-04-10T11:38:13.063Z,1004.96
2017-04-10T11:40:39.695Z,1004.86
2017-04-10T11:43:13.054Z,1004.83
2017-04-10T11:45:59.618Z,1004.84
2017-04-10T11:48:32.259Z,1004.79
2017-04-10T11:51:04.091Z,1004.72
2017-04-10T11:53:29.706Z,1004.68
2017-04-10T11:55:55.587Z,1004.65
2017-04-10T11:58:23.169Z,1004.65
2017-04-10T12:00:48.769Z,1004.55
2017-04-10T12:03:19.748Z,1004.55
2017-04-10T12:08:41.542Z,1004.45
2017-04-10T12:11:08.203Z,1004.37
2017-04-10T12:15:59.170Z,1004.36
2017-04-10T12:18:30.312Z,1004.33
2017-04-10T12:20:54.140Z,1004.29
2017-04-10T12:23:20.609Z,1004.17
2017-04-10T12:25:45.472Z,1004.25
2017-04-10T12:28:17.492Z,1004.16
2017-04-10T12:30:42.515Z,1004.17
2017-04-10T12:33:07.519Z,1004.06
2017-04-10T12:35:32.334Z,1004.12
2017-04-10T12:37:57.202Z,1004.09
2017-04-10T12:41:58.008Z,1004.1
2017-04-10T12:44:22.872Z,1004.07
2017-04-10T12:46:47.761Z,1004.04
2017-04-10T12:49:12.609Z,1004.03
2017-04-10T12:51:37.377Z,1004
2017-04-10T12:54:02.247Z,1003.94
2017-04-10T12:56:26.962Z,1003.91
2017-04-10T12:58:51.765Z,1003.98
2017-04-10T13:01:16.725Z,1003.86
2017-04-10T13:03:41.394Z,1003.86
2017-04-10T13:06:06.231Z,1003.83
2017-04-10T13:08:31.012Z,1003.76
2017-04-10T13:10:55.749Z,1003.77
2017-04-10T13:13:20.570Z,1003.8
2017-04-10T13:15:45.373Z,1003.76
2017-04-10T13:18:10.259Z,1003.67
2017-04-10T13:20:35.057Z,1003.56
2017-04-10T13:22:59.855Z,1003.59
2017-04-10T13:25:01.909Z,1003.59
2017-04-10T13:27:26.708Z,1003.54
2017-04-10T13:29:51.515Z,1003.47
2017-04-10T13:32:16.302Z,1003.54
2017-04-10T13:34:41.085Z,1003.5
2017-04-10T13:37:05.889Z,1003.43
2017-04-10T13:39:30.695Z,1003.44
2017-04-10T13:41:55.485Z,1003.43
2017-04-10T13:44:20.194Z,1003.49
2017-04-10T13:46:30.807Z,1003.38
2017-04-10T13:48:55.668Z,1003.42
2017-04-10T13:51:20.454Z,1003.36
2017-04-10T13:53:45.245Z,1003.33
2017-04-10T13:56:01.579Z,1003.25
2017-04-10T13:58:26.371Z,1003.34
2017-04-10T14:00:42.679Z,1003.31
2017-04-10T14:03:07.556Z,1003.37
2017-04-10T14:05:32.355Z,1003.33
2017-04-10T14:07:57.155Z,1003.35
2017-04-10T14:10:21.969Z,1003.34
2017-04-10T14:12:46.864Z,1003.34
2017-04-10T14:15:11.654Z,1003.34
2017-04-10T14:17:36.462Z,1003.17
2017-04-10T14:20:01.360Z,1003.25
2017-04-10T14:22:26.174Z,1003.39
2017-04-10T14:24:50.960Z,1003.24
2017-04-10T14:27:15.758Z,1003.39
2017-04-10T14:29:40.953Z,1003.33
2017-04-10T14:32:06.267Z,1003.39
2017-04-10T14:34:42.803Z,1003.33
